sensor_id;sensor_type;location;lat;lon;timestamp;P1;durP1;ratioP1;P2;durP2;ratioP2
26965;SDS011;14522;52.068;4.414;2023-10-08T00:00:45;15.98;;;4.22;;
26965;SDS011;14522;52.068;4.414;2023-10-08T00:03:13;17.38;;;4.80;;
26965;SDS011;14522;52.068;4.414;2023-10-08T00:05:40;8.90;;;3.28;;
26965;SDS011;14522;52.068;4.414;2023-10-08T00:08:07;13.40;;;3.40;;
26965;SDS011;14522;52.068;4.414;2023-10-08T00:10:40;14.68;;;3.42;;
26965;SDS011;14522;52.068;4.414;2023-10-08T00:13:07;9.05;;;4.40;;
26965;SDS011;14522;52.068;4.414;2023-10-08T00:15:35;16.08;;;4.95;;
26965;SDS011;14522;52.068;4.414;2023-10-08T00:18:06;10.68;;;3.53;;
26965;SDS011;14522;52.068;4.414;2023-10-08T00:20:34;17.42;;;4.28;;
26965;SDS011;14522;52.068;4.414;2023-10-08T00:23:13;18.42;;;4.07;;
26965;SDS011;14522;52.068;4.414;2023-10-08T00:25:41;15.43;;;3.63;;
26965;SDS011;14522;52.068;4.414;2023-10-08T00:28:09;16.80;;;3.72;;
26965;SDS011;14522;52.068;4.414;2023-10-08T00:30:43;12.77;;;4.20;;
26965;SDS011;14522;52.068;4.414;2023-10-08T00:33:10;13.23;;;4.05;;
26965;SDS011;14522;52.068;4.414;2023-10-08T00:35:43;12.98;;;3.53;;
26965;SDS011;14522;52.068;4.414;2023-10-08T00:38:10;13.75;;;4.30;;
26965;SDS011;14522;52.068;4.414;2023-10-08T00:40:47;10.98;;;3.42;;
26965;SDS011;14522;52.068;4.414;2023-10-08T00:43:28;12.43;;;3.95;;
26965;SDS011;14522;52.068;4.414;2023-10-08T00:45:56;15.93;;;4.07;;
26965;SDS011;14522;52.068;4.414;2023-10-08T00:48:25;18.45;;;4.72;;
26965;SDS011;14522;52.068;4.414;2023-10-08T00:50:56;21.88;;;4.10;;
26965;SDS011;14522;52.068;4.414;2023-10-08T00:53:35;23.83;;;4.45;;
26965;SDS011;14522;52.068;4.414;2023-10-08T00:56:06;12.93;;;3.80;;
26965;SDS011;14522;52.068;4.414;2023-10-08T00:58:42;10.05;;;3.53;;
26965;SDS011;14522;52.068;4.414;2023-10-08T01:01:12;17.50;;;4.05;;
26965;SDS011;14522;52.068;4.414;2023-10-08T01:03:39;13.57;;;3.67;;
26965;SDS011;14522;52.068;4.414;2023-10-08T01:06:11;16.48;;;4.68;;
26965;SDS011;14522;52.068;4.414;2023-10-08T01:08:38;14.57;;;3.60;;
26965;SDS011;14522;52.068;4.414;2023-10-08T01:11:22;12.07;;;4.40;;
26965;SDS011;14522;52.068;4.414;2023-10-08T01:14:01;9.02;;;2.75;;
26965;SDS011;14522;52.068;4.414;2023-10-08T01:16:28;14.63;;;3.78;;
26965;SDS011;14522;52.068;4.414;2023-10-08T01:18:56;10.18;;;3.78;;
26965;SDS011;14522;52.068;4.414;2023-10-08T01:21:22;8.68;;;3.05;;
26965;SDS011;14522;52.068;4.414;2023-10-08T01:24:01;12.40;;;4.10;;
26965;SDS011;14522;52.068;4.414;2023-10-08T01:26:30;16.00;;;4.55;;
26965;SDS011;14522;52.068;4.414;2023-10-08T01:28:58;11.18;;;4.28;;
26965;SDS011;14522;52.068;4.414;2023-10-08T01:31:29;10.88;;;3.92;;
26965;SDS011;14522;52.068;4.414;2023-10-08T01:33:56;11.15;;;3.92;;
26965;SDS011;14522;52.068;4.414;2023-10-08T01:36:24;21.63;;;4.97;;
26965;SDS011;14522;52.068;4.414;2023-10-08T01:38:51;10.32;;;3.80;;
26965;SDS011;14522;52.068;4.414;2023-10-08T01:41:18;16.48;;;4.70;;
26965;SDS011;14522;52.068;4.414;2023-10-08T01:43:56;19.25;;;5.70;;
26965;SDS011;14522;52.068;4.414;2023-10-08T01:46:24;16.23;;;4.38;;
26965;SDS011;14522;52.068;4.414;2023-10-08T01:48:52;14.68;;;4.82;;
26965;SDS011;14522;52.068;4.414;2023-10-08T01:51:30;14.20;;;4.00;;
26965;SDS011;14522;52.068;4.414;2023-10-08T01:54:13;15.15;;;4.68;;
26965;SDS011;14522;52.068;4.414;2023-10-08T01:56:44;14.95;;;4.38;;
26965;SDS011;14522;52.068;4.414;2023-10-08T01:59:12;14.35;;;4.30;;
26965;SDS011;14522;52.068;4.414;2023-10-08T02:01:40;19.52;;;4.63;;
26965;SDS011;14522;52.068;4.414;2023-10-08T02:04:07;16.85;;;5.05;;
26965;SDS011;14522;52.068;4.414;2023-10-08T02:06:34;11.60;;;4.13;;
26965;SDS011;14522;52.068;4.414;2023-10-08T02:09:01;17.25;;;4.50;;
26965;SDS011;14522;52.068;4.414;2023-10-08T02:11:43;22.10;;;4.78;;
26965;SDS011;14522;52.068;4.414;2023-10-08T02:14:10;11.13;;;3.55;;
26965;SDS011;14522;52.068;4.414;2023-10-08T02:16:38;10.75;;;4.03;;
26965;SDS011;14522;52.068;4.414;2023-10-08T02:19:05;14.13;;;4.30;;
26965;SDS011;14522;52.068;4.414;2023-10-08T02:21:32;21.02;;;3.60;;
26965;SDS011;14522;52.068;4.414;2023-10-08T02:23:59;17.98;;;4.63;;
26965;SDS011;14522;52.068;4.414;2023-10-08T02:26:26;11.57;;;4.20;;
26965;SDS011;14522;52.068;4.414;2023-10-08T02:28:52;19.75;;;4.60;;
26965;SDS011;14522;52.068;4.414;2023-10-08T02:31:20;15.85;;;3.88;;
26965;SDS011;14522;52.068;4.414;2023-10-08T02:33:46;14.93;;;3.95;;
26965;SDS011;14522;52.068;4.414;2023-10-08T02:36:13;17.20;;;4.75;;
26965;SDS011;14522;52.068;4.414;2023-10-08T02:38:40;22.55;;;5.72;;
26965;SDS011;14522;52.068;4.414;2023-10-08T02:41:06;12.90;;;4.25;;
26965;SDS011;14522;52.068;4.414;2023-10-08T02:43:33;17.38;;;4.32;;
26965;SDS011;14522;52.068;4.414;2023-10-08T02:46:08;14.48;;;4.70;;
26965;SDS011;14522;52.068;4.414;2023-10-08T02:48:40;13.45;;;3.75;;
26965;SDS011;14522;52.068;4.414;2023-10-08T02:51:07;9.45;;;3.10;;
26965;SDS011;14522;52.068;4.414;2023-10-08T02:53:40;17.85;;;3.67;;
26965;SDS011;14522;52.068;4.414;2023-10-08T02:56:10;11.35;;;4.43;;
26965;SDS011;14522;52.068;4.414;2023-10-08T02:58:40;14.07;;;3.85;;
26965;SDS011;14522;52.068;4.414;2023-10-08T03:01:07;18.35;;;4.97;;
26965;SDS011;14522;52.068;4.414;2023-10-08T03:03:41;11.52;;;4.30;;
26965;SDS011;14522;52.068;4.414;2023-10-08T03:06:08;9.07;;;3.70;;
26965;SDS011;14522;52.068;4.414;2023-10-08T03:08:38;9.52;;;3.35;;
26965;SDS011;14522;52.068;4.414;2023-10-08T03:11:08;9.10;;;3.53;;
26965;SDS011;14522;52.068;4.414;2023-10-08T03:13:43;15.82;;;4.25;;
26965;SDS011;14522;52.068;4.414;2023-10-08T03:16:13;18.50;;;4.15;;
26965;SDS011;14522;52.068;4.414;2023-10-08T03:18:40;18.13;;;3.70;;
26965;SDS011;14522;52.068;4.414;2023-10-08T03:21:11;13.55;;;4.03;;
26965;SDS011;14522;52.068;4.414;2023-10-08T03:23:50;12.30;;;4.18;;
26965;SDS011;14522;52.068;4.414;2023-10-08T03:26:18;14.07;;;4.63;;
26965;SDS011;14522;52.068;4.414;2023-10-08T03:28:58;13.55;;;3.60;;
26965;SDS011;14522;52.068;4.414;2023-10-08T03:31:24;14.73;;;4.10;;
26965;SDS011;14522;52.068;4.414;2023-10-08T03:34:10;14.80;;;4.10;;
26965;SDS011;14522;52.068;4.414;2023-10-08T03:36:41;13.15;;;4.03;;
26965;SDS011;14522;52.068;4.414;2023-10-08T03:39:11;19.17;;;5.35;;
26965;SDS011;14522;52.068;4.414;2023-10-08T03:41:40;24.30;;;5.13;;
26965;SDS011;14522;52.068;4.414;2023-10-08T03:44:07;12.82;;;4.25;;
26965;SDS011;14522;52.068;4.414;2023-10-08T03:46:40;15.18;;;4.22;;
26965;SDS011;14522;52.068;4.414;2023-10-08T03:49:10;17.65;;;4.63;;
26965;SDS011;14522;52.068;4.414;2023-10-08T03:51:51;14.00;;;3.72;;
26965;SDS011;14522;52.068;4.414;2023-10-08T03:54:21;11.95;;;4.72;;
26965;SDS011;14522;52.068;4.414;2023-10-08T03:57:01;20.70;;;5.03;;
26965;SDS011;14522;52.068;4.414;2023-10-08T03:59:30;20.92;;;4.97;;
26965;SDS011;14522;52.068;4.414;2023-10-08T04:02:07;15.77;;;4.47;;
26965;SDS011;14522;52.068;4.414;2023-10-08T04:04:59;19.35;;;4.80;;
26965;SDS011;14522;52.068;4.414;2023-10-08T04:07:26;15.05;;;4.78;;
26965;SDS011;14522;52.068;4.414;2023-10-08T04:10:05;12.35;;;4.68;;
26965;SDS011;14522;52.068;4.414;2023-10-08T04:12:35;16.17;;;5.35;;
26965;SDS011;14522;52.068;4.414;2023-10-08T04:15:02;17.73;;;3.95;;
26965;SDS011;14522;52.068;4.414;2023-10-08T04:17:35;11.65;;;3.85;;
26965;SDS011;14522;52.068;4.414;2023-10-08T04:20:13;12.13;;;4.10;;
26965;SDS011;14522;52.068;4.414;2023-10-08T04:22:59;23.90;;;4.45;;
26965;SDS011;14522;52.068;4.414;2023-10-08T04:25:26;15.57;;;4.55;;
26965;SDS011;14522;52.068;4.414;2023-10-08T04:27:54;11.57;;;3.95;;
26965;SDS011;14522;52.068;4.414;2023-10-08T04:30:34;18.75;;;4.05;;
26965;SDS011;14522;52.068;4.414;2023-10-08T04:33:01;15.30;;;4.13;;
26965;SDS011;14522;52.068;4.414;2023-10-08T04:35:37;23.33;;;5.57;;
26965;SDS011;14522;52.068;4.414;2023-10-08T04:38:23;14.60;;;3.17;;
26965;SDS011;14522;52.068;4.414;2023-10-08T04:40:51;17.17;;;5.10;;
26965;SDS011;14522;52.068;4.414;2023-10-08T04:43:19;12.65;;;3.70;;
26965;SDS011;14522;52.068;4.414;2023-10-08T04:45:51;15.45;;;5.00;;
26965;SDS011;14522;52.068;4.414;2023-10-08T04:48:18;17.83;;;4.03;;
26965;SDS011;14522;52.068;4.414;2023-10-08T04:50:48;13.35;;;3.92;;
26965;SDS011;14522;52.068;4.414;2023-10-08T04:53:28;12.07;;;3.65;;
26965;SDS011;14522;52.068;4.414;2023-10-08T04:56:08;15.27;;;3.53;;
26965;SDS011;14522;52.068;4.414;2023-10-08T05:01:13;8.95;;;3.33;;
26965;SDS011;14522;52.068;4.414;2023-10-08T05:03:58;14.98;;;4.70;;
26965;SDS011;14522;52.068;4.414;2023-10-08T05:09:04;9.88;;;3.83;;
26965;SDS011;14522;52.068;4.414;2023-10-08T05:11:39;14.18;;;3.63;;
26965;SDS011;14522;52.068;4.414;2023-10-08T05:14:19;17.98;;;4.45;;
26965;SDS011;14522;52.068;4.414;2023-10-08T05:17:07;12.95;;;3.95;;
26965;SDS011;14522;52.068;4.414;2023-10-08T05:19:57;10.15;;;3.28;;
26965;SDS011;14522;52.068;4.414;2023-10-08T05:22:46;17.10;;;4.55;;
26965;SDS011;14522;52.068;4.414;2023-10-08T05:25:22;12.10;;;3.72;;
26965;SDS011;14522;52.068;4.414;2023-10-08T05:28:01;12.65;;;4.10;;
26965;SDS011;14522;52.068;4.414;2023-10-08T05:30:36;16.38;;;4.38;;
26965;SDS011;14522;52.068;4.414;2023-10-08T05:33:19;20.27;;;3.90;;
26965;SDS011;14522;52.068;4.414;2023-10-08T05:35:52;12.98;;;3.67;;
26965;SDS011;14522;52.068;4.414;2023-10-08T05:38:37;24.95;;;4.00;;
26965;SDS011;14522;52.068;4.414;2023-10-08T05:41:03;26.83;;;5.18;;
26965;SDS011;14522;52.068;4.414;2023-10-08T05:43:34;19.02;;;4.13;;
26965;SDS011;14522;52.068;4.414;2023-10-08T05:46:04;14.65;;;2.85;;
26965;SDS011;14522;52.068;4.414;2023-10-08T05:48:52;17.60;;;3.60;;
26965;SDS011;14522;52.068;4.414;2023-10-08T05:51:36;18.42;;;3.65;;
26965;SDS011;14522;52.068;4.414;2023-10-08T05:54:18;12.38;;;3.45;;
26965;SDS011;14522;52.068;4.414;2023-10-08T05:57:11;15.15;;;4.43;;
26965;SDS011;14522;52.068;4.414;2023-10-08T05:59:45;14.13;;;3.88;;
26965;SDS011;14522;52.068;4.414;2023-10-08T06:02:27;17.42;;;3.25;;
26965;SDS011;14522;52.068;4.414;2023-10-08T06:05:14;11.00;;;3.47;;
26965;SDS011;14522;52.068;4.414;2023-10-08T06:07:52;24.95;;;4.40;;
26965;SDS011;14522;52.068;4.414;2023-10-08T06:10:20;14.75;;;3.40;;
26965;SDS011;14522;52.068;4.414;2023-10-08T06:18:11;13.50;;;2.50;;
26965;SDS011;14522;52.068;4.414;2023-10-08T06:20:40;13.45;;;2.85;;
26965;SDS011;14522;52.068;4.414;2023-10-08T06:23:10;9.27;;;2.92;;
26965;SDS011;14522;52.068;4.414;2023-10-08T06:25:38;7.07;;;2.65;;
26965;SDS011;14522;52.068;4.414;2023-10-08T06:28:15;9.57;;;2.42;;
26965;SDS011;14522;52.068;4.414;2023-10-08T06:30:47;5.72;;;1.75;;
26965;SDS011;14522;52.068;4.414;2023-10-08T06:33:15;9.52;;;1.83;;
26965;SDS011;14522;52.068;4.414;2023-10-08T06:35:43;7.22;;;1.70;;
26965;SDS011;14522;52.068;4.414;2023-10-08T06:38:11;6.88;;;2.03;;
26965;SDS011;14522;52.068;4.414;2023-10-08T06:40:38;7.45;;;1.88;;
26965;SDS011;14522;52.068;4.414;2023-10-08T06:43:04;10.05;;;2.38;;
26965;SDS011;14522;52.068;4.414;2023-10-08T06:45:41;8.32;;;2.78;;
26965;SDS011;14522;52.068;4.414;2023-10-08T06:48:09;11.57;;;3.50;;
26965;SDS011;14522;52.068;4.414;2023-10-08T06:50:44;8.73;;;4.00;;
26965;SDS011;14522;52.068;4.414;2023-10-08T06:53:11;11.43;;;4.30;;
26965;SDS011;14522;52.068;4.414;2023-10-08T06:55:40;15.20;;;4.38;;
26965;SDS011;14522;52.068;4.414;2023-10-08T06:58:07;14.27;;;3.92;;
26965;SDS011;14522;52.068;4.414;2023-10-08T07:00:44;13.23;;;4.97;;
26965;SDS011;14522;52.068;4.414;2023-10-08T07:03:15;19.70;;;5.35;;
26965;SDS011;14522;52.068;4.414;2023-10-08T07:05:48;15.68;;;5.53;;
26965;SDS011;14522;52.068;4.414;2023-10-08T07:08:21;14.45;;;5.57;;
26965;SDS011;14522;52.068;4.414;2023-10-08T07:10:50;13.50;;;5.30;;
26965;SDS011;14522;52.068;4.414;2023-10-08T07:13:17;15.18;;;4.78;;
26965;SDS011;14522;52.068;4.414;2023-10-08T07:15:44;18.13;;;5.60;;
26965;SDS011;14522;52.068;4.414;2023-10-08T07:18:11;13.50;;;4.43;;
26965;SDS011;14522;52.068;4.414;2023-10-08T07:20:39;13.85;;;5.43;;
26965;SDS011;14522;52.068;4.414;2023-10-08T07:23:08;12.75;;;4.50;;
26965;SDS011;14522;52.068;4.414;2023-10-08T07:25:52;15.43;;;4.57;;
26965;SDS011;14522;52.068;4.414;2023-10-08T07:28:19;9.25;;;3.60;;
26965;SDS011;14522;52.068;4.414;2023-10-08T07:30:46;10.57;;;3.88;;
26965;SDS011;14522;52.068;4.414;2023-10-08T07:33:14;10.50;;;3.42;;
26965;SDS011;14522;52.068;4.414;2023-10-08T07:35:51;12.73;;;3.05;;
26965;SDS011;14522;52.068;4.414;2023-10-08T07:38:26;11.90;;;3.35;;
26965;SDS011;14522;52.068;4.414;2023-10-08T07:40:56;10.63;;;2.67;;
26965;SDS011;14522;52.068;4.414;2023-10-08T07:43:23;13.18;;;3.75;;
26965;SDS011;14522;52.068;4.414;2023-10-08T07:45:49;7.00;;;2.58;;
26965;SDS011;14522;52.068;4.414;2023-10-08T07:48:15;9.73;;;2.90;;
26965;SDS011;14522;52.068;4.414;2023-10-08T07:50:43;10.10;;;3.58;;
26965;SDS011;14522;52.068;4.414;2023-10-08T07:53:09;10.70;;;3.28;;
26965;SDS011;14522;52.068;4.414;2023-10-08T07:55:44;11.70;;;3.53;;
26965;SDS011;14522;52.068;4.414;2023-10-08T07:58:13;10.63;;;2.67;;
26965;SDS011;14522;52.068;4.414;2023-10-08T08:00:41;7.18;;;2.75;;
26965;SDS011;14522;52.068;4.414;2023-10-08T08:03:07;14.57;;;3.55;;
26965;SDS011;14522;52.068;4.414;2023-10-08T08:05:34;9.20;;;3.40;;
26965;SDS011;14522;52.068;4.414;2023-10-08T08:08:01;14.35;;;3.15;;
26965;SDS011;14522;52.068;4.414;2023-10-08T08:10:32;10.05;;;3.55;;
26965;SDS011;14522;52.068;4.414;2023-10-08T08:13:05;14.75;;;3.90;;
26965;SDS011;14522;52.068;4.414;2023-10-08T08:15:32;9.57;;;2.78;;
26965;SDS011;14522;52.068;4.414;2023-10-08T08:17:59;10.05;;;3.78;;
26965;SDS011;14522;52.068;4.414;2023-10-08T08:20:26;9.10;;;3.58;;
26965;SDS011;14522;52.068;4.414;2023-10-08T08:23:01;6.78;;;3.17;;
26965;SDS011;14522;52.068;4.414;2023-10-08T08:25:39;12.55;;;3.42;;
26965;SDS011;14522;52.068;4.414;2023-10-08T08:28:13;5.63;;;2.17;;
26965;SDS011;14522;52.068;4.414;2023-10-08T08:30:47;7.18;;;2.58;;
26965;SDS011;14522;52.068;4.414;2023-10-08T08:33:14;15.77;;;3.70;;
26965;SDS011;14522;52.068;4.414;2023-10-08T08:35:58;8.52;;;2.72;;
26965;SDS011;14522;52.068;4.414;2023-10-08T08:38:27;11.02;;;3.42;;
26965;SDS011;14522;52.068;4.414;2023-10-08T08:41:02;8.07;;;3.30;;
26965;SDS011;14522;52.068;4.414;2023-10-08T08:43:36;11.10;;;2.75;;
26965;SDS011;14522;52.068;4.414;2023-10-08T08:46:03;7.82;;;2.85;;
26965;SDS011;14522;52.068;4.414;2023-10-08T08:48:31;9.90;;;2.95;;
26965;SDS011;14522;52.068;4.414;2023-10-08T08:51:00;15.35;;;4.00;;
26965;SDS011;14522;52.068;4.414;2023-10-08T08:53:26;11.95;;;3.80;;
26965;SDS011;14522;52.068;4.414;2023-10-08T08:55:53;8.73;;;2.65;;
26965;SDS011;14522;52.068;4.414;2023-10-08T08:58:21;9.63;;;2.90;;
26965;SDS011;14522;52.068;4.414;2023-10-08T09:00:48;13.75;;;3.65;;
26965;SDS011;14522;52.068;4.414;2023-10-08T09:03:18;7.50;;;2.72;;
26965;SDS011;14522;52.068;4.414;2023-10-08T09:05:46;7.75;;;2.70;;
26965;SDS011;14522;52.068;4.414;2023-10-08T09:08:17;8.35;;;2.38;;
26965;SDS011;14522;52.068;4.414;2023-10-08T09:10:45;7.78;;;2.60;;
26965;SDS011;14522;52.068;4.414;2023-10-08T09:13:21;9.27;;;2.25;;
26965;SDS011;14522;52.068;4.414;2023-10-08T09:15:51;12.40;;;3.28;;
26965;SDS011;14522;52.068;4.414;2023-10-08T09:18:21;8.93;;;2.80;;
26965;SDS011;14522;52.068;4.414;2023-10-08T09:20:48;8.80;;;2.33;;
26965;SDS011;14522;52.068;4.414;2023-10-08T09:23:16;7.45;;;2.55;;
26965;SDS011;14522;52.068;4.414;2023-10-08T09:25:44;17.98;;;4.05;;
26965;SDS011;14522;52.068;4.414;2023-10-08T09:28:11;11.15;;;2.80;;
26965;SDS011;14522;52.068;4.414;2023-10-08T09:30:40;14.95;;;3.35;;
26965;SDS011;14522;52.068;4.414;2023-10-08T09:33:07;17.35;;;3.50;;
26965;SDS011;14522;52.068;4.414;2023-10-08T09:35:34;11.07;;;2.90;;
26965;SDS011;14522;52.068;4.414;2023-10-08T09:38:06;9.70;;;2.58;;
26965;SDS011;14522;52.068;4.414;2023-10-08T09:40:36;7.35;;;2.25;;
26965;SDS011;14522;52.068;4.414;2023-10-08T09:43:02;7.50;;;2.55;;
26965;SDS011;14522;52.068;4.414;2023-10-08T09:45:30;10.40;;;3.00;;
26965;SDS011;14522;52.068;4.414;2023-10-08T09:47:56;11.00;;;2.88;;
26965;SDS011;14522;52.068;4.414;2023-10-08T09:50:29;4.75;;;1.48;;
26965;SDS011;14522;52.068;4.414;2023-10-08T09:53:00;9.77;;;3.67;;
26965;SDS011;14522;52.068;4.414;2023-10-08T09:55:30;16.10;;;3.65;;
26965;SDS011;14522;52.068;4.414;2023-10-08T09:57:56;14.75;;;3.22;;
26965;SDS011;14522;52.068;4.414;2023-10-08T10:00:23;11.57;;;3.05;;
26965;SDS011;14522;52.068;4.414;2023-10-08T10:03:00;15.40;;;3.03;;
26965;SDS011;14522;52.068;4.414;2023-10-08T10:05:31;9.70;;;2.72;;
26965;SDS011;14522;52.068;4.414;2023-10-08T10:07:58;7.90;;;2.50;;
26965;SDS011;14522;52.068;4.414;2023-10-08T10:10:25;9.07;;;3.13;;
26965;SDS011;14522;52.068;4.414;2023-10-08T10:12:52;15.02;;;3.28;;
26965;SDS011;14522;52.068;4.414;2023-10-08T10:15:19;12.73;;;3.22;;
26965;SDS011;14522;52.068;4.414;2023-10-08T10:18:07;10.98;;;2.65;;
26965;SDS011;14522;52.068;4.414;2023-10-08T10:20:38;11.82;;;3.45;;
26965;SDS011;14522;52.068;4.414;2023-10-08T10:26:03;12.50;;;3.15;;
26965;SDS011;14522;52.068;4.414;2023-10-08T10:28:29;10.57;;;3.03;;
26965;SDS011;14522;52.068;4.414;2023-10-08T10:30:56;7.63;;;2.40;;
26965;SDS011;14522;52.068;4.414;2023-10-08T10:33:32;12.20;;;3.25;;
26965;SDS011;14522;52.068;4.414;2023-10-08T10:36:02;15.23;;;3.20;;
26965;SDS011;14522;52.068;4.414;2023-10-08T10:38:31;11.05;;;3.00;;
26965;SDS011;14522;52.068;4.414;2023-10-08T10:41:00;8.63;;;2.88;;
26965;SDS011;14522;52.068;4.414;2023-10-08T10:43:34;12.63;;;2.50;;
26965;SDS011;14522;52.068;4.414;2023-10-08T10:46:01;13.80;;;3.05;;
26965;SDS011;14522;52.068;4.414;2023-10-08T10:48:46;12.57;;;3.27;;
26965;SDS011;14522;52.068;4.414;2023-10-08T10:51:23;10.65;;;3.10;;
26965;SDS011;14522;52.068;4.414;2023-10-08T10:53:50;11.80;;;3.38;;
26965;SDS011;14522;52.068;4.414;2023-10-08T10:56:34;8.30;;;3.13;;
26965;SDS011;14522;52.068;4.414;2023-10-08T10:59:08;13.45;;;4.22;;
26965;SDS011;14522;52.068;4.414;2023-10-08T11:01:53;10.38;;;2.67;;
26965;SDS011;14522;52.068;4.414;2023-10-08T11:04:43;14.40;;;3.22;;
26965;SDS011;14522;52.068;4.414;2023-10-08T11:07:19;12.52;;;2.85;;
26965;SDS011;14522;52.068;4.414;2023-10-08T11:09:47;9.18;;;3.25;;
26965;SDS011;14522;52.068;4.414;2023-10-08T11:12:14;10.68;;;2.67;;
26965;SDS011;14522;52.068;4.414;2023-10-08T11:14:46;7.85;;;2.40;;
26965;SDS011;14522;52.068;4.414;2023-10-08T11:17:13;12.10;;;3.50;;
26965;SDS011;14522;52.068;4.414;2023-10-08T11:19:43;5.47;;;1.77;;
26965;SDS011;14522;52.068;4.414;2023-10-08T11:22:12;13.50;;;3.72;;
26965;SDS011;14522;52.068;4.414;2023-10-08T11:24:51;13.80;;;3.70;;
26965;SDS011;14522;52.068;4.414;2023-10-08T11:27:22;7.05;;;2.30;;
26965;SDS011;14522;52.068;4.414;2023-10-08T11:29:56;11.35;;;3.35;;
26965;SDS011;14522;52.068;4.414;2023-10-08T11:32:27;11.57;;;3.38;;
26965;SDS011;14522;52.068;4.414;2023-10-08T11:34:59;8.88;;;3.95;;
26965;SDS011;14522;52.068;4.414;2023-10-08T11:37:29;11.70;;;3.42;;
26965;SDS011;14522;52.068;4.414;2023-10-08T11:39:56;14.43;;;4.68;;
26965;SDS011;14522;52.068;4.414;2023-10-08T11:42:26;12.93;;;4.43;;
26965;SDS011;14522;52.068;4.414;2023-10-08T11:44:58;11.27;;;3.88;;
26965;SDS011;14522;52.068;4.414;2023-10-08T11:47:44;14.60;;;4.72;;
26965;SDS011;14522;52.068;4.414;2023-10-08T11:50:11;8.80;;;3.00;;
26965;SDS011;14522;52.068;4.414;2023-10-08T11:52:43;14.05;;;5.13;;
26965;SDS011;14522;52.068;4.414;2023-10-08T11:55:09;14.05;;;4.07;;
26965;SDS011;14522;52.068;4.414;2023-10-08T11:57:36;12.38;;;3.47;;
26965;SDS011;14522;52.068;4.414;2023-10-08T12:00:12;13.20;;;3.70;;
26965;SDS011;14522;52.068;4.414;2023-10-08T12:02:58;15.40;;;4.35;;
26965;SDS011;14522;52.068;4.414;2023-10-08T12:05:28;11.38;;;3.25;;
26965;SDS011;14522;52.068;4.414;2023-10-08T12:07:56;8.40;;;3.50;;
26965;SDS011;14522;52.068;4.414;2023-10-08T12:10:24;15.07;;;3.75;;
26965;SDS011;14522;52.068;4.414;2023-10-08T12:12:51;14.05;;;4.80;;
26965;SDS011;14522;52.068;4.414;2023-10-08T12:15:21;12.02;;;4.88;;
26965;SDS011;14522;52.068;4.414;2023-10-08T12:17:48;15.50;;;5.05;;
26965;SDS011;14522;52.068;4.414;2023-10-08T12:20:39;16.27;;;4.53;;
26965;SDS011;14522;52.068;4.414;2023-10-08T12:23:10;13.55;;;4.03;;
26965;SDS011;14522;52.068;4.414;2023-10-08T12:25:52;15.93;;;4.50;;
26965;SDS011;14522;52.068;4.414;2023-10-08T12:28:19;12.05;;;4.63;;
26965;SDS011;14522;52.068;4.414;2023-10-08T12:30:45;10.02;;;4.28;;
26965;SDS011;14522;52.068;4.414;2023-10-08T12:33:12;9.18;;;3.25;;
26965;SDS011;14522;52.068;4.414;2023-10-08T12:35:43;14.38;;;4.40;;
26965;SDS011;14522;52.068;4.414;2023-10-08T12:38:10;11.13;;;4.63;;
26965;SDS011;14522;52.068;4.414;2023-10-08T12:40:37;16.58;;;4.82;;
26965;SDS011;14522;52.068;4.414;2023-10-08T12:43:22;12.73;;;4.50;;
26965;SDS011;14522;52.068;4.414;2023-10-08T12:45:49;12.88;;;4.32;;
26965;SDS011;14522;52.068;4.414;2023-10-08T12:48:24;8.82;;;4.50;;
26965;SDS011;14522;52.068;4.414;2023-10-08T12:50:53;12.18;;;4.97;;
26965;SDS011;14522;52.068;4.414;2023-10-08T12:53:20;15.57;;;5.40;;
26965;SDS011;14522;52.068;4.414;2023-10-08T12:55:50;17.08;;;5.57;;
26965;SDS011;14522;52.068;4.414;2023-10-08T12:58:25;11.55;;;5.13;;
26965;SDS011;14522;52.068;4.414;2023-10-08T13:00:55;22.95;;;6.03;;
26965;SDS011;14522;52.068;4.414;2023-10-08T13:03:29;13.00;;;5.63;;
26965;SDS011;14522;52.068;4.414;2023-10-08T13:05:59;21.98;;;7.60;;
26965;SDS011;14522;52.068;4.414;2023-10-08T13:08:31;14.88;;;6.70;;
26965;SDS011;14522;52.068;4.414;2023-10-08T13:10:58;16.35;;;7.30;;
26965;SDS011;14522;52.068;4.414;2023-10-08T13:13:27;17.55;;;6.57;;
26965;SDS011;14522;52.068;4.414;2023-10-08T13:15:54;23.33;;;8.77;;
26965;SDS011;14522;52.068;4.414;2023-10-08T13:18:22;21.23;;;8.45;;
26965;SDS011;14522;52.068;4.414;2023-10-08T13:20:52;19.67;;;7.90;;
26965;SDS011;14522;52.068;4.414;2023-10-08T13:23:19;17.88;;;8.32;;
26965;SDS011;14522;52.068;4.414;2023-10-08T13:25:47;24.00;;;8.90;;
26965;SDS011;14522;52.068;4.414;2023-10-08T13:28:20;21.75;;;9.68;;
26965;SDS011;14522;52.068;4.414;2023-10-08T13:30:47;19.23;;;8.15;;
26965;SDS011;14522;52.068;4.414;2023-10-08T13:33:19;19.67;;;8.75;;
26965;SDS011;14522;52.068;4.414;2023-10-08T13:35:46;24.10;;;8.68;;
26965;SDS011;14522;52.068;4.414;2023-10-08T13:38:32;16.70;;;7.13;;
26965;SDS011;14522;52.068;4.414;2023-10-08T13:40:59;19.42;;;7.95;;
26965;SDS011;14522;52.068;4.414;2023-10-08T13:43:32;17.60;;;7.55;;
26965;SDS011;14522;52.068;4.414;2023-10-08T13:46:02;17.48;;;7.70;;
26965;SDS011;14522;52.068;4.414;2023-10-08T13:48:33;19.20;;;8.00;;
26965;SDS011;14522;52.068;4.414;2023-10-08T13:51:02;17.13;;;7.55;;
26965;SDS011;14522;52.068;4.414;2023-10-08T13:53:33;15.25;;;7.88;;
26965;SDS011;14522;52.068;4.414;2023-10-08T13:56:00;20.52;;;7.45;;
26965;SDS011;14522;52.068;4.414;2023-10-08T13:58:27;22.40;;;8.45;;
26965;SDS011;14522;52.068;4.414;2023-10-08T14:00:58;21.58;;;8.13;;
26965;SDS011;14522;52.068;4.414;2023-10-08T14:03:32;13.60;;;7.60;;
26965;SDS011;14522;52.068;4.414;2023-10-08T14:05:59;21.38;;;7.97;;
26965;SDS011;14522;52.068;4.414;2023-10-08T14:08:31;22.38;;;8.27;;
26965;SDS011;14522;52.068;4.414;2023-10-08T14:10:57;21.80;;;7.85;;
26965;SDS011;14522;52.068;4.414;2023-10-08T14:13:30;18.30;;;6.65;;
26965;SDS011;14522;52.068;4.414;2023-10-08T14:15:58;23.10;;;8.23;;
26965;SDS011;14522;52.068;4.414;2023-10-08T14:18:25;17.98;;;8.63;;
26965;SDS011;14522;52.068;4.414;2023-10-08T14:21:07;20.08;;;7.22;;
26965;SDS011;14522;52.068;4.414;2023-10-08T14:23:37;14.65;;;7.18;;
26965;SDS011;14522;52.068;4.414;2023-10-08T14:26:07;17.48;;;7.60;;
26965;SDS011;14522;52.068;4.414;2023-10-08T14:28:34;20.02;;;8.25;;
26965;SDS011;14522;52.068;4.414;2023-10-08T14:31:07;17.70;;;7.47;;
26965;SDS011;14522;52.068;4.414;2023-10-08T14:33:34;17.00;;;6.95;;
26965;SDS011;14522;52.068;4.414;2023-10-08T14:36:08;21.40;;;8.05;;
26965;SDS011;14522;52.068;4.414;2023-10-08T14:38:54;20.08;;;7.65;;
26965;SDS011;14522;52.068;4.414;2023-10-08T14:41:39;21.07;;;8.47;;
26965;SDS011;14522;52.068;4.414;2023-10-08T14:44:23;15.18;;;6.90;;
26965;SDS011;14522;52.068;4.414;2023-10-08T14:46:51;20.25;;;8.73;;
26965;SDS011;14522;52.068;4.414;2023-10-08T14:49:17;22.98;;;8.13;;
26965;SDS011;14522;52.068;4.414;2023-10-08T14:51:44;20.42;;;8.25;;
26965;SDS011;14522;52.068;4.414;2023-10-08T14:54:15;19.05;;;7.85;;
26965;SDS011;14522;52.068;4.414;2023-10-08T14:56:42;14.63;;;6.40;;
26965;SDS011;14522;52.068;4.414;2023-10-08T14:59:09;23.05;;;7.97;;
26965;SDS011;14522;52.068;4.414;2023-10-08T15:01:35;21.17;;;8.88;;
26965;SDS011;14522;52.068;4.414;2023-10-08T15:04:02;18.35;;;8.98;;
26965;SDS011;14522;52.068;4.414;2023-10-08T15:06:31;21.48;;;7.20;;
26965;SDS011;14522;52.068;4.414;2023-10-08T15:08:58;25.40;;;8.45;;
26965;SDS011;14522;52.068;4.414;2023-10-08T15:11:24;16.48;;;7.22;;
26965;SDS011;14522;52.068;4.414;2023-10-08T15:13:53;19.00;;;8.05;;